createdAt,value
2022-12-26T00:00:28.817Z,9.746095
2022-12-26T00:01:28.791Z,9.745874
2022-12-26T00:02:28.842Z,9.745831
2022-12-26T00:03:28.854Z,9.745911
2022-12-26T00:04:51.901Z,9.745528
2022-12-26T00:05:29.737Z,9.745445
2022-12-26T00:06:28.755Z,9.745511
2022-12-26T00:07:28.726Z,9.745484
2022-12-26T00:08:28.715Z,9.745471
2022-12-26T00:09:28.700Z,9.745115
2022-12-26T00:10:28.703Z,9.745165
2022-12-26T00:11:28.709Z,9.744993
2022-12-26T00:12:28.679Z,9.745350
2022-12-26T00:13:39.231Z,9.745333
2022-12-26T00:14:29.667Z,9.745450
2022-12-26T00:15:28.652Z,9.745233
2022-12-26T00:16:28.754Z,9.745423
2022-12-26T00:17:28.638Z,9.745217
2022-12-26T00:18:28.634Z,9.745496
2022-12-26T00:19:28.624Z,9.745453
2022-12-26T00:20:28.620Z,9.745504
2022-12-26T00:21:28.636Z,9.745492
2022-12-26T00:22:28.610Z,9.745635
2022-12-26T00:23:28.591Z,9.745546
2022-12-26T00:24:28.591Z,9.745655
2022-12-26T00:25:28.578Z,9.745797
2022-12-26T00:26:28.605Z,9.745736
2022-12-26T00:27:28.566Z,9.745896
2022-12-26T00:28:28.557Z,9.745694
2022-12-26T00:29:28.547Z,9.745372
2022-12-26T00:30:28.533Z,9.745320
2022-12-26T00:31:28.612Z,9.745483
2022-12-26T00:32:28.550Z,9.745559
2022-12-26T00:33:28.514Z,9.745740
2022-12-26T00:34:28.514Z,9.746270
2022-12-26T00:35:28.503Z,9.745878
2022-12-26T00:36:28.499Z,9.745540
2022-12-26T00:37:28.537Z,9.745538
2022-12-26T00:38:28.480Z,9.745588
2022-12-26T00:39:28.470Z,9.745645
2022-12-26T00:40:28.458Z,9.745594
2022-12-26T00:41:28.447Z,9.745418
2022-12-26T00:42:28.475Z,9.745518
2022-12-26T00:43:28.435Z,9.745442
2022-12-26T00:44:28.433Z,9.745739
2022-12-26T00:45:28.417Z,9.745926
2022-12-26T00:46:28.496Z,9.745339
2022-12-26T00:47:28.493Z,9.745448
2022-12-26T00:48:28.399Z,9.745348
2022-12-26T00:49:28.386Z,9.745726
2022-12-26T00:50:34.378Z,9.745661
2022-12-26T00:51:30.374Z,9.745919
2022-12-26T00:52:28.392Z,9.745475
2022-12-26T00:53:28.367Z,9.745547
2022-12-26T00:54:28.349Z,9.745726
2022-12-26T00:55:28.345Z,9.745460
2022-12-26T00:56:28.351Z,9.745552
2022-12-26T00:57:28.354Z,9.745413
2022-12-26T00:58:28.322Z,9.745421
2022-12-26T00:59:28.311Z,9.745527
2022-12-26T01:00:28.393Z,9.745664
2022-12-26T01:01:28.391Z,9.745234
2022-12-26T01:02:28.482Z,9.745399
2022-12-26T01:03:28.354Z,9.745474
2022-12-26T01:04:28.276Z,9.745664
2022-12-26T01:05:28.268Z,9.745542
2022-12-26T01:06:28.255Z,9.745754
2022-12-26T01:07:28.297Z,9.745637
2022-12-26T01:08:28.254Z,9.745498
2022-12-26T01:09:28.234Z,9.745525
2022-12-26T01:10:28.230Z,9.745460
2022-12-26T01:11:28.251Z,9.745608
2022-12-26T01:12:28.242Z,9.745612
2022-12-26T01:13:28.205Z,9.745693
2022-12-26T01:14:28.216Z,9.745716
2022-12-26T01:15:28.201Z,9.745442
2022-12-26T01:16:28.231Z,9.745233
2022-12-26T01:17:28.202Z,9.745340
2022-12-26T01:18:28.170Z,9.745626
2022-12-26T01:19:28.165Z,9.745576
2022-12-26T01:20:28.166Z,9.745637
2022-12-26T01:21:28.145Z,9.745700
2022-12-26T01:22:28.166Z,9.745757
2022-12-26T01:23:28.133Z,9.745685
2022-12-26T01:24:28.123Z,9.745812
2022-12-26T01:25:28.093Z,9.745927
2022-12-26T01:26:29.104Z,9.745631
2022-12-26T01:27:28.093Z,9.745503
2022-12-26T01:28:28.116Z,9.745646
2022-12-26T01:29:28.088Z,9.745746
2022-12-26T01:30:28.071Z,9.745814
2022-12-26T01:31:28.100Z,9.745719
2022-12-26T01:32:28.063Z,9.745738
2022-12-26T01:33:28.083Z,9.745615
2022-12-26T01:34:28.042Z,9.745709
2022-12-26T01:35:28.040Z,9.745598
2022-12-26T01:36:28.031Z,9.745536
2022-12-26T01:37:28.017Z,9.745603
2022-12-26T01:38:28.039Z,9.745795
2022-12-26T01:39:28.001Z,9.745850
2022-12-26T01:40:28.011Z,9.745782
2022-12-26T01:41:28.099Z,9.745673
2022-12-26T01:42:27.998Z,9.745543
2022-12-26T01:43:27.996Z,9.745706
2022-12-26T01:44:27.974Z,9.745416
2022-12-26T01:45:27.997Z,9.745621
2022-12-26T01:46:28.042Z,9.745815
2022-12-26T01:47:28.040Z,9.745785
2022-12-26T01:48:27.959Z,9.745930
2022-12-26T01:49:27.924Z,9.745392
2022-12-26T01:50:27.918Z,9.745317
2022-12-26T01:51:27.911Z,9.745411
2022-12-26T01:52:27.898Z,9.745787
2022-12-26T01:53:27.917Z,9.745645
2022-12-26T01:54:40.002Z,9.745426
2022-12-26T01:55:28.874Z,9.745504
2022-12-26T01:56:27.870Z,9.745709
2022-12-26T01:57:27.876Z,9.745882
2022-12-26T01:58:27.882Z,9.745784
2022-12-26T01:59:27.880Z,9.745655
2022-12-26T02:00:27.846Z,9.745495
2022-12-26T02:01:27.928Z,9.745889
2022-12-26T02:02:28.051Z,9.745836
2022-12-26T02:03:27.919Z,9.745562
2022-12-26T02:04:27.819Z,9.745775
2022-12-26T02:05:27.810Z,9.745565
2022-12-26T02:06:27.792Z,9.745187
2022-12-26T02:07:27.785Z,9.745255
2022-12-26T02:08:27.806Z,9.745700
2022-12-26T02:09:27.764Z,9.745405
2022-12-26T02:10:27.769Z,9.745441
2022-12-26T02:11:27.754Z,9.745465
2022-12-26T02:12:36.140Z,9.745565
2022-12-26T02:13:28.782Z,9.745483
2022-12-26T02:14:27.729Z,9.745589
2022-12-26T02:15:27.722Z,9.745388
2022-12-26T02:16:27.739Z,9.745474
2022-12-26T02:17:27.707Z,9.745341
2022-12-26T02:18:27.727Z,9.745960
2022-12-26T02:19:27.692Z,9.745566
2022-12-26T02:20:27.683Z,9.745543
2022-12-26T02:21:27.673Z,9.745671
2022-12-26T02:22:27.672Z,9.745547
2022-12-26T02:23:27.657Z,9.745445
2022-12-26T02:24:27.678Z,9.745415
2022-12-26T02:25:27.648Z,9.745165
2022-12-26T02:26:27.633Z,9.745242
2022-12-26T02:27:27.628Z,9.745614
2022-12-26T02:28:27.619Z,9.745507
2022-12-26T02:29:27.637Z,9.745340
2022-12-26T02:30:27.605Z,9.745474
2022-12-26T02:31:27.610Z,9.745436
2022-12-26T02:32:27.592Z,9.745461
2022-12-26T02:33:27.583Z,9.745530
2022-12-26T02:34:27.599Z,9.745547
2022-12-26T02:35:27.567Z,9.745656
2022-12-26T02:36:27.581Z,9.745599
2022-12-26T02:37:28.551Z,9.745770
2022-12-26T02:38:27.542Z,9.745844
2022-12-26T02:39:44.411Z,9.745670
2022-12-26T02:40:28.524Z,9.745434
2022-12-26T02:41:27.515Z,9.745576
2022-12-26T02:42:27.515Z,9.745779
2022-12-26T02:43:27.501Z,9.745614
2022-12-26T02:44:27.518Z,9.745647
2022-12-26T02:45:27.481Z,9.745605
2022-12-26T02:46:27.508Z,9.745472
2022-12-26T02:47:27.473Z,9.745597
2022-12-26T02:48:27.502Z,9.745601
2022-12-26T02:49:27.495Z,9.745463
2022-12-26T02:50:27.447Z,9.745517
2022-12-26T02:51:27.444Z,9.745585
2022-12-26T02:52:27.452Z,9.745625
2022-12-26T02:53:27.432Z,9.745604
2022-12-26T02:54:27.453Z,9.745543
2022-12-26T02:55:27.410Z,9.745428
2022-12-26T02:56:27.404Z,9.745535
2022-12-26T02:57:27.406Z,9.745687
2022-12-26T02:58:27.387Z,9.745631
2022-12-26T02:59:54.386Z,9.745394
2022-12-26T03:00:28.397Z,9.745537
2022-12-26T03:01:27.454Z,9.745420
2022-12-26T03:02:27.692Z,9.745415
2022-12-26T03:03:27.394Z,9.745545
2022-12-26T03:04:27.338Z,9.745466
2022-12-26T03:05:27.377Z,9.745469
2022-12-26T03:06:27.322Z,9.745522
2022-12-26T03:07:27.315Z,9.745241
2022-12-26T03:08:27.309Z,9.745256
2022-12-26T03:09:27.301Z,9.745677
2022-12-26T03:10:27.311Z,9.745543
2022-12-26T03:11:27.284Z,9.745322
2022-12-26T03:12:27.280Z,9.745433
2022-12-26T03:13:27.269Z,9.745640
2022-12-26T03:14:27.265Z,9.745407
2022-12-26T03:15:27.282Z,9.745174
2022-12-26T03:16:27.272Z,9.745378
2022-12-26T03:17:27.251Z,9.745353
2022-12-26T03:18:58.451Z,9.745577
2022-12-26T03:19:28.239Z,9.745501
2022-12-26T03:20:27.253Z,9.745374
2022-12-26T03:21:27.206Z,9.745403
2022-12-26T03:22:27.202Z,9.745808
2022-12-26T03:23:27.199Z,9.745637
2022-12-26T03:24:27.201Z,9.745437
2022-12-26T03:25:27.209Z,9.745439
2022-12-26T03:26:27.167Z,9.745353
2022-12-26T03:27:27.159Z,9.745399
2022-12-26T03:28:27.158Z,9.745540
2022-12-26T03:29:27.143Z,9.745395
2022-12-26T03:30:27.252Z,9.745455
2022-12-26T03:31:27.135Z,9.745332
2022-12-26T03:32:27.122Z,9.745446
2022-12-26T03:33:27.114Z,9.745372
2022-12-26T03:34:27.108Z,9.745275
2022-12-26T03:35:27.132Z,9.745123
2022-12-26T03:36:27.091Z,9.745504
2022-12-26T03:37:47.718Z,9.745307
2022-12-26T03:38:28.094Z,9.745045
2022-12-26T03:39:27.065Z,9.745232
2022-12-26T03:40:27.058Z,9.745401
2022-12-26T03:41:27.080Z,9.745437
2022-12-26T03:42:27.038Z,9.745454
2022-12-26T03:43:27.044Z,9.745383
2022-12-26T03:44:27.028Z,9.745301
2022-12-26T03:45:27.023Z,9.745473
2022-12-26T03:46:27.122Z,9.745518
2022-12-26T03:47:27.005Z,9.745444
2022-12-26T03:48:26.994Z,9.745417
2022-12-26T03:49:27.003Z,9.745234
2022-12-26T03:50:26.975Z,9.745601
2022-12-26T03:51:27.001Z,9.745572
2022-12-26T03:52:26.962Z,9.745579
2022-12-26T03:53:26.956Z,9.745544
2022-12-26T03:54:26.945Z,9.745389
2022-12-26T03:55:26.947Z,9.745299
2022-12-26T03:56:26.957Z,9.745359
2022-12-26T03:57:26.923Z,9.745331
2022-12-26T03:58:26.913Z,9.745866
2022-12-26T03:59:27.065Z,9.745446
2022-12-26T04:00:26.903Z,9.745501
2022-12-26T04:01:26.978Z,9.745803
2022-12-26T04:02:27.012Z,9.745681
2022-12-26T04:03:26.876Z,9.745658
2022-12-26T04:04:26.876Z,9.745588
2022-12-26T04:05:26.868Z,9.745482
2022-12-26T04:06:26.866Z,9.745427
2022-12-26T04:07:26.881Z,9.745337
2022-12-26T04:08:26.836Z,9.745363
2022-12-26T04:09:26.832Z,9.745340
2022-12-26T04:10:26.827Z,9.745238
2022-12-26T04:11:26.820Z,9.745434
2022-12-26T04:12:26.835Z,9.745407
2022-12-26T04:13:26.797Z,9.745464
2022-12-26T04:14:26.786Z,9.745475
2022-12-26T04:15:26.848Z,9.745702
2022-12-26T04:16:26.792Z,9.745778
2022-12-26T04:17:26.804Z,9.745432
2022-12-26T04:18:26.766Z,9.745377
2022-12-26T04:19:26.753Z,9.745439
2022-12-26T04:20:26.739Z,9.745426
2022-12-26T04:21:26.753Z,9.745390
2022-12-26T04:22:26.758Z,9.745477
2022-12-26T04:23:26.720Z,9.745638
2022-12-26T04:24:27.715Z,9.745922
2022-12-26T04:25:50.130Z,9.746018
2022-12-26T04:26:27.703Z,9.745904
2022-12-26T04:27:26.717Z,9.745872
2022-12-26T04:28:26.679Z,9.745634
2022-12-26T04:29:26.671Z,9.745404
2022-12-26T04:30:26.669Z,9.745328
2022-12-26T04:31:26.698Z,9.745415
2022-12-26T04:32:26.689Z,9.745358
2022-12-26T04:33:26.641Z,9.745761
2022-12-26T04:34:26.641Z,9.745593
2022-12-26T04:35:26.630Z,9.745452
2022-12-26T04:36:26.634Z,9.745414
2022-12-26T04:37:26.613Z,9.745398
2022-12-26T04:38:26.633Z,9.745640
2022-12-26T04:39:26.599Z,9.745501
2022-12-26T04:40:26.594Z,9.745564
2022-12-26T04:41:26.583Z,9.745622
2022-12-26T04:42:26.576Z,9.745370
2022-12-26T04:43:48.492Z,9.745488
2022-12-26T04:44:27.558Z,9.745572
2022-12-26T04:45:26.550Z,9.745394
2022-12-26T04:46:26.588Z,9.745152
2022-12-26T04:47:26.538Z,9.745081
2022-12-26T04:48:26.555Z,9.745351
2022-12-26T04:49:26.521Z,9.745277
2022-12-26T04:50:26.517Z,9.745107
2022-12-26T04:51:26.504Z,9.745088
2022-12-26T04:52:26.505Z,9.745464
2022-12-26T04:53:26.513Z,9.745364
2022-12-26T04:54:26.482Z,9.745493
2022-12-26T04:55:26.494Z,9.745555
2022-12-26T04:56:26.467Z,9.745096
2022-12-26T04:57:26.491Z,9.745288
2022-12-26T04:58:26.472Z,9.745449
2022-12-26T04:59:26.448Z,9.745193
2022-12-26T05:00:26.435Z,9.745241
2022-12-26T05:01:26.503Z,9.745464
2022-12-26T05:02:26.500Z,9.745593
2022-12-26T05:03:26.553Z,9.745395
2022-12-26T05:04:26.415Z,9.745411
2022-12-26T05:05:26.395Z,9.745336
2022-12-26T05:06:26.385Z,9.745378
2022-12-26T05:07:26.372Z,9.745807
2022-12-26T05:08:26.396Z,9.745439
2022-12-26T05:09:26.368Z,9.745267
2022-12-26T05:10:26.377Z,9.745785
2022-12-26T05:11:26.377Z,9.746174
2022-12-26T05:12:26.338Z,9.745977
2022-12-26T05:13:26.330Z,9.745465
2022-12-26T05:14:26.359Z,9.745608
2022-12-26T05:15:26.342Z,9.745278
2022-12-26T05:16:26.406Z,9.745337
2022-12-26T05:17:26.294Z,9.745652
2022-12-26T05:18:26.296Z,9.745411
2022-12-26T05:19:26.289Z,9.745577
2022-12-26T05:20:26.270Z,9.745670
2022-12-26T05:21:26.294Z,9.745618
2022-12-26T05:22:26.263Z,9.745967
2022-12-26T05:23:26.260Z,9.745659
2022-12-26T05:24:26.255Z,9.745420
2022-12-26T05:25:26.228Z,9.745473
2022-12-26T05:26:26.223Z,9.745742
2022-12-26T05:27:26.263Z,9.745801
2022-12-26T05:28:26.211Z,9.745304
2022-12-26T05:29:26.201Z,9.745107
2022-12-26T05:30:26.214Z,9.745836
2022-12-26T05:31:31.114Z,9.746379
2022-12-26T05:32:28.225Z,9.746461
2022-12-26T05:33:26.174Z,9.746738
2022-12-26T05:34:26.163Z,9.745877
2022-12-26T05:35:26.152Z,9.745173
2022-12-26T05:36:26.167Z,9.746668
2022-12-26T05:37:26.168Z,9.746881
2022-12-26T05:38:26.134Z,9.746480
2022-12-26T05:39:26.130Z,9.746499
2022-12-26T05:40:26.122Z,9.746541
2022-12-26T05:41:26.106Z,9.746563
2022-12-26T05:42:26.125Z,9.746563
2022-12-26T05:43:26.095Z,9.747499
2022-12-26T05:44:26.088Z,9.746964
2022-12-26T05:45:26.077Z,9.748031
2022-12-26T05:46:26.171Z,9.748146
2022-12-26T05:47:26.088Z,9.747590
2022-12-26T05:48:26.059Z,9.745436
2022-12-26T05:49:26.046Z,9.745330
2022-12-26T05:50:26.045Z,9.745447
2022-12-26T05:51:26.035Z,9.745542
2022-12-26T05:52:26.049Z,9.745770
2022-12-26T05:53:26.012Z,9.746290
2022-12-26T05:54:26.004Z,9.746350
2022-12-26T05:55:26.006Z,9.745667
2022-12-26T05:56:26.004Z,9.745707
2022-12-26T05:57:26.014Z,9.744597
2022-12-26T05:58:25.977Z,9.745664
2022-12-26T05:59:25.970Z,9.745315
2022-12-26T06:00:26.959Z,9.745492
2022-12-26T06:01:26.028Z,9.745174
2022-12-26T06:02:26.053Z,9.745630
2022-12-26T06:03:25.970Z,9.745584
2022-12-26T06:04:25.924Z,9.745683
2022-12-26T06:05:25.921Z,9.746023
2022-12-26T06:06:25.931Z,9.745872
2022-12-26T06:07:26.930Z,9.745419
2022-12-26T06:08:25.900Z,9.745405
2022-12-26T06:09:25.894Z,9.745340
2022-12-26T06:10:25.879Z,9.745729
2022-12-26T06:11:25.872Z,9.745507
2022-12-26T06:12:25.896Z,9.745108
2022-12-26T06:13:25.858Z,9.745177
2022-12-26T06:14:25.868Z,9.745260
2022-12-26T06:15:25.844Z,9.745736
2022-12-26T06:16:25.929Z,9.745722
2022-12-26T06:17:25.829Z,9.745580
2022-12-26T06:18:25.845Z,9.745400
2022-12-26T06:19:25.808Z,9.745583
2022-12-26T06:20:25.797Z,9.745605
2022-12-26T06:21:25.791Z,9.745225
2022-12-26T06:22:25.784Z,9.745387
2022-12-26T06:23:25.802Z,9.745733
2022-12-26T06:24:25.796Z,9.745504
2022-12-26T06:25:25.800Z,9.745269
2022-12-26T06:26:25.759Z,9.745260
2022-12-26T06:27:25.746Z,9.745359
2022-12-26T06:28:25.770Z,9.745317
2022-12-26T06:29:25.722Z,9.745197
2022-12-26T06:30:26.716Z,9.745330
2022-12-26T06:31:25.739Z,9.745514
2022-12-26T06:32:25.705Z,9.745478
2022-12-26T06:33:25.727Z,9.745326
2022-12-26T06:34:25.689Z,9.745316
2022-12-26T06:35:25.685Z,9.745209
2022-12-26T06:36:25.671Z,9.745250
2022-12-26T06:37:25.667Z,9.745464
2022-12-26T06:38:25.684Z,9.745290
2022-12-26T06:39:25.645Z,9.745301
2022-12-26T06:40:25.639Z,9.745006
2022-12-26T06:41:25.640Z,9.745134
2022-12-26T06:42:25.624Z,9.745302
2022-12-26T06:43:25.643Z,9.745168
2022-12-26T06:44:25.614Z,9.745186
2022-12-26T06:45:25.593Z,9.745137
2022-12-26T06:46:25.617Z,9.744923
2022-12-26T06:47:25.578Z,9.745087
2022-12-26T06:48:25.687Z,9.745435
2022-12-26T06:49:32.187Z,9.745194
2022-12-26T06:50:27.560Z,9.745283
2022-12-26T06:51:25.555Z,9.745394
2022-12-26T06:52:25.536Z,9.745299
2022-12-26T06:53:25.558Z,9.744984
2022-12-26T06:54:25.529Z,9.745239
2022-12-26T06:55:25.516Z,9.745508
2022-12-26T06:56:25.509Z,9.745578
2022-12-26T06:57:25.511Z,9.745441
2022-12-26T06:58:25.520Z,9.745301
2022-12-26T06:59:25.490Z,9.745549
2022-12-26T07:00:25.525Z,9.745500
2022-12-26T07:01:25.574Z,9.745469
2022-12-26T07:02:25.536Z,9.745469
2022-12-26T07:03:25.736Z,9.745651
2022-12-26T07:04:25.444Z,9.745566
2022-12-26T07:05:25.440Z,9.745628
2022-12-26T07:06:25.432Z,9.745646
2022-12-26T07:07:25.427Z,9.745692
2022-12-26T07:08:25.443Z,9.745579
2022-12-26T07:09:31.471Z,9.745476
2022-12-26T07:10:27.395Z,9.745600
2022-12-26T07:11:25.392Z,9.745625
2022-12-26T07:12:26.383Z,9.745749
2022-12-26T07:13:25.383Z,9.745592
2022-12-26T07:14:25.391Z,9.745502
2022-12-26T07:15:25.358Z,9.745413
2022-12-26T07:16:25.424Z,9.745572
2022-12-26T07:17:25.345Z,9.745567
2022-12-26T07:18:25.340Z,9.745549
2022-12-26T07:19:25.370Z,9.745626
2022-12-26T07:20:25.328Z,9.745378
2022-12-26T07:21:25.321Z,9.745530
2022-12-26T07:22:25.302Z,9.745517
2022-12-26T07:23:25.297Z,9.745440
2022-12-26T07:24:25.315Z,9.745457
2022-12-26T07:25:25.287Z,9.745510
2022-12-26T07:26:25.279Z,9.745606
2022-12-26T07:27:25.266Z,9.745725
2022-12-26T07:28:25.260Z,9.745495
2022-12-26T07:29:25.277Z,9.745474
2022-12-26T07:30:25.243Z,9.745515
2022-12-26T07:31:25.259Z,9.745637
2022-12-26T07:32:25.230Z,9.745468
2022-12-26T07:33:25.217Z,9.745437
2022-12-26T07:34:31.044Z,9.745393
2022-12-26T07:35:27.215Z,9.745591
2022-12-26T07:36:25.372Z,9.745658
2022-12-26T07:37:25.194Z,9.745649
2022-12-26T07:38:25.184Z,9.745248
2022-12-26T07:39:25.200Z,9.745321
2022-12-26T07:40:25.171Z,9.745407
2022-12-26T07:41:25.160Z,9.745495
2022-12-26T07:42:25.153Z,9.745358
2022-12-26T07:43:25.146Z,9.745419
2022-12-26T07:44:25.167Z,9.745406
2022-12-26T07:45:25.159Z,9.745301
2022-12-26T07:46:25.156Z,9.745308
2022-12-26T07:47:25.108Z,9.745341
2022-12-26T07:48:25.102Z,9.745692
2022-12-26T07:49:25.122Z,9.745490
2022-12-26T07:50:25.087Z,9.745547
2022-12-26T07:51:25.077Z,9.745420
2022-12-26T07:52:25.071Z,9.745233
2022-12-26T07:53:25.063Z,9.745406
2022-12-26T07:54:25.075Z,9.744871
2022-12-26T07:55:25.042Z,9.745086
2022-12-26T07:56:26.048Z,9.745512
2022-12-26T07:57:52.808Z,9.745346
2022-12-26T07:58:27.022Z,9.745413
2022-12-26T07:59:25.041Z,9.745427
2022-12-26T08:00:25.011Z,9.745115
2022-12-26T08:01:25.107Z,9.745525
2022-12-26T08:02:25.268Z,9.744963
2022-12-26T08:03:25.015Z,9.745254
2022-12-26T08:04:25.011Z,9.745298
2022-12-26T08:05:24.975Z,9.745439
2022-12-26T08:06:24.967Z,9.745357
2022-12-26T08:07:24.957Z,9.745654
2022-12-26T08:08:24.949Z,9.745602
2022-12-26T08:09:24.960Z,9.745498
2022-12-26T08:10:24.930Z,9.745676
2022-12-26T08:11:24.924Z,9.745548
2022-12-26T08:12:24.914Z,9.745465
2022-12-26T08:13:24.903Z,9.745175
2022-12-26T08:14:24.933Z,9.745290
2022-12-26T08:15:24.888Z,9.745490
2022-12-26T08:16:24.923Z,9.745361
2022-12-26T08:17:24.871Z,9.745264
2022-12-26T08:18:24.879Z,9.745527
2022-12-26T08:19:24.883Z,9.745551
2022-12-26T08:20:24.852Z,9.745625
2022-12-26T08:21:24.839Z,9.745257
2022-12-26T08:22:24.832Z,9.745556
2022-12-26T08:23:24.825Z,9.745648
2022-12-26T08:24:24.820Z,9.745415
2022-12-26T08:25:24.831Z,9.745491
2022-12-26T08:26:24.800Z,9.745476
2022-12-26T08:27:24.796Z,9.745292
2022-12-26T08:28:24.784Z,9.744986
2022-12-26T08:29:24.773Z,9.745193
2022-12-26T08:30:24.788Z,9.745214
2022-12-26T08:32:24.752Z,9.745510
2022-12-26T08:33:24.749Z,9.745695
2022-12-26T08:34:24.745Z,9.745764
2022-12-26T08:35:24.752Z,9.745590
2022-12-26T08:36:24.717Z,9.745496
2022-12-26T08:37:24.745Z,9.745982
2022-12-26T08:38:29.896Z,9.745851
2022-12-26T08:39:26.695Z,9.745650
2022-12-26T08:40:42.058Z,9.745830
2022-12-26T08:41:26.688Z,9.745696
2022-12-26T08:42:24.674Z,9.745665
2022-12-26T08:44:23.558Z,9.745193
2022-12-26T08:44:28.030Z,9.744438
2022-12-26T08:45:25.681Z,9.745178
2022-12-26T08:46:24.730Z,9.745601
2022-12-26T08:47:24.632Z,9.745398
2022-12-26T08:48:24.623Z,9.745318
2022-12-26T08:49:24.620Z,9.745556
2022-12-26T08:50:25.629Z,9.745520
2022-12-26T08:51:24.609Z,9.745386
2022-12-26T08:52:24.593Z,9.745524
2022-12-26T08:53:24.588Z,9.745654
2022-12-26T08:54:24.584Z,9.745829
2022-12-26T08:55:24.592Z,9.745729
2022-12-26T08:56:24.567Z,9.745872
2022-12-26T08:57:24.557Z,9.745750
2022-12-26T08:58:24.618Z,9.746443
2022-12-26T08:59:24.546Z,9.746155
2022-12-26T09:00:24.664Z,9.745811
2022-12-26T09:01:24.692Z,9.745378
2022-12-26T09:02:24.731Z,9.745263
2022-12-26T09:03:24.552Z,9.745636
2022-12-26T09:04:24.503Z,9.745752
2022-12-26T09:05:24.529Z,9.745934
2022-12-26T09:06:24.501Z,9.745511
2022-12-26T09:07:24.477Z,9.745439
2022-12-26T09:08:24.479Z,9.745214
2022-12-26T09:09:24.456Z,9.745497
2022-12-26T09:10:24.578Z,9.745499
2022-12-26T09:11:24.446Z,9.745420
2022-12-26T09:12:24.450Z,9.745563
2022-12-26T09:13:24.426Z,9.745516
2022-12-26T09:14:24.429Z,9.745542
2022-12-26T09:15:24.439Z,9.745682
2022-12-26T09:16:24.460Z,9.745266
2022-12-26T09:17:24.417Z,9.745429
2022-12-26T09:18:24.391Z,9.745412
2022-12-26T09:19:24.399Z,9.745294
2022-12-26T09:20:24.401Z,9.745530
2022-12-26T09:21:24.394Z,9.745626
2022-12-26T09:22:24.371Z,9.745394
2022-12-26T09:23:24.352Z,9.745346
2022-12-26T09:24:24.345Z,9.745397
2022-12-26T09:25:24.336Z,9.745258
2022-12-26T09:26:24.355Z,9.745239
2022-12-26T09:27:24.333Z,9.745270
2022-12-26T09:28:24.318Z,9.745449
2022-12-26T09:29:24.307Z,9.745531
2022-12-26T09:30:24.318Z,9.745457
2022-12-26T09:31:25.362Z,9.745586
2022-12-26T09:32:24.288Z,9.745526
2022-12-26T09:33:24.276Z,9.745338
2022-12-26T09:34:24.260Z,9.745499
2022-12-26T09:35:24.262Z,9.745529
2022-12-26T09:36:24.277Z,9.745468
2022-12-26T09:37:24.239Z,9.745695
2022-12-26T09:38:24.238Z,9.745448
2022-12-26T09:39:24.235Z,9.745180
2022-12-26T09:40:24.285Z,9.745461
2022-12-26T09:41:24.238Z,9.745470
2022-12-26T09:42:24.203Z,9.745486
2022-12-26T09:43:24.202Z,9.745417
2022-12-26T09:44:24.189Z,9.745311
2022-12-26T09:45:24.179Z,9.745438
2022-12-26T09:46:24.241Z,9.745486
2022-12-26T09:47:24.165Z,9.745501
2022-12-26T09:48:24.168Z,9.745518
2022-12-26T09:49:24.179Z,9.745445
2022-12-26T09:50:24.140Z,9.745429
2022-12-26T09:51:24.161Z,9.745439
2022-12-26T09:52:24.122Z,9.745417
2022-12-26T09:53:24.125Z,9.745509
2022-12-26T09:54:24.119Z,9.745535
2022-12-26T09:55:24.106Z,9.745428
2022-12-26T09:57:26.083Z,9.745552
2022-12-26T09:58:24.077Z,9.745631
2022-12-26T09:59:24.074Z,9.745507
2022-12-26T10:00:24.069Z,9.745501
2022-12-26T10:01:24.220Z,9.745268
2022-12-26T10:02:24.189Z,9.745144
2022-12-26T10:03:24.036Z,9.745477
2022-12-26T10:04:28.954Z,9.745488
2022-12-26T10:05:25.029Z,9.745525
2022-12-26T10:06:24.068Z,9.745335
2022-12-26T10:07:24.015Z,9.745479
2022-12-26T10:08:24.011Z,9.745509
2022-12-26T10:09:24.005Z,9.745235
2022-12-26T10:10:23.986Z,9.745352
2022-12-26T10:11:24.003Z,9.745532
2022-12-26T10:12:23.968Z,9.745137
2022-12-26T10:13:23.973Z,9.745190
2022-12-26T10:14:23.954Z,9.745336
2022-12-26T10:15:23.949Z,9.745378
2022-12-26T10:16:23.992Z,9.745153
2022-12-26T10:17:23.937Z,9.745336
2022-12-26T10:18:23.921Z,9.745408
2022-12-26T10:19:28.719Z,9.745594
2022-12-26T10:20:25.907Z,9.745496
2022-12-26T10:21:23.930Z,9.745542
2022-12-26T10:22:23.896Z,9.745100
2022-12-26T10:23:23.887Z,9.745291
2022-12-26T10:24:23.879Z,9.745465
2022-12-26T10:25:26.360Z,9.745399
2022-12-26T10:26:23.862Z,9.745552
2022-12-26T10:27:23.877Z,9.745188
2022-12-26T10:28:23.837Z,9.745275
2022-12-26T10:29:23.846Z,9.745678
2022-12-26T10:30:23.823Z,9.745555
2022-12-26T10:31:23.849Z,9.745584
2022-12-26T10:32:27.859Z,9.745744
2022-12-26T10:33:24.806Z,9.745671
2022-12-26T10:34:23.802Z,9.745543
2022-12-26T10:35:23.803Z,9.745216
2022-12-26T10:36:23.785Z,9.745480
2022-12-26T10:37:23.794Z,9.745499
2022-12-26T10:38:27.433Z,9.745535
2022-12-26T10:39:24.748Z,9.745432
2022-12-26T10:40:23.754Z,9.745407
2022-12-26T10:41:23.734Z,9.745577
2022-12-26T10:42:23.752Z,9.745770
2022-12-26T10:43:23.722Z,9.745535
2022-12-26T10:44:27.628Z,9.745508
2022-12-26T10:45:24.718Z,9.745406
2022-12-26T10:46:23.731Z,9.745573
2022-12-26T10:47:23.730Z,9.745452
2022-12-26T10:48:23.682Z,9.745645
2022-12-26T10:49:23.688Z,9.745499
2022-12-26T10:50:27.435Z,9.745479
2022-12-26T10:51:24.661Z,9.745512
2022-12-26T10:52:23.673Z,9.745338
2022-12-26T10:53:23.642Z,9.745460
2022-12-26T10:54:23.635Z,9.745361
2022-12-26T10:55:28.553Z,9.745531
2022-12-26T10:56:24.626Z,9.745518
2022-12-26T10:57:23.640Z,9.745417
2022-12-26T10:58:23.605Z,9.745551
2022-12-26T10:59:23.635Z,9.745507
2022-12-26T11:00:23.599Z,9.745269
2022-12-26T11:01:23.671Z,9.745600
2022-12-26T11:02:23.802Z,9.745582
2022-12-26T11:03:23.643Z,9.745566
2022-12-26T11:04:53.210Z,9.745560
2022-12-26T11:05:48.939Z,9.745642
2022-12-26T11:06:25.547Z,9.745650
2022-12-26T11:07:23.573Z,9.745430
2022-12-26T11:08:23.539Z,9.745502
2022-12-26T11:09:23.521Z,9.745437
2022-12-26T11:10:23.510Z,9.745510
2022-12-26T11:11:23.512Z,9.745496
2022-12-26T11:12:23.527Z,9.745748
2022-12-26T11:13:23.487Z,9.745754
2022-12-26T11:14:24.514Z,9.745707
2022-12-26T11:15:23.475Z,9.745498
2022-12-26T11:16:23.481Z,9.745802
2022-12-26T11:17:23.495Z,9.745665
2022-12-26T11:18:23.447Z,9.745521
2022-12-26T11:19:23.447Z,9.745473
2022-12-26T11:20:23.464Z,9.745553
2022-12-26T11:21:23.435Z,9.745148
2022-12-26T11:22:23.427Z,9.745088
2022-12-26T11:23:23.437Z,9.745346
2022-12-26T11:24:23.412Z,9.745610
2022-12-26T11:25:23.395Z,9.745557
2022-12-26T11:26:23.401Z,9.745499
2022-12-26T11:27:23.387Z,9.745769
2022-12-26T11:28:23.399Z,9.745716
2022-12-26T11:29:23.363Z,9.745658
2022-12-26T11:30:23.366Z,9.746025
2022-12-26T11:31:23.367Z,9.745209
2022-12-26T11:32:23.341Z,9.745914
2022-12-26T11:33:23.362Z,9.745885
2022-12-26T11:34:23.376Z,9.745511
2022-12-26T11:35:23.328Z,9.745459
2022-12-26T11:36:23.310Z,9.745716
2022-12-26T11:37:23.304Z,9.745260
2022-12-26T11:38:23.324Z,9.746327
2022-12-26T11:39:23.294Z,9.745451
2022-12-26T11:40:23.284Z,9.744899
2022-12-26T11:41:23.292Z,9.744884
2022-12-26T11:42:24.262Z,9.744165
2022-12-26T11:43:23.283Z,9.744939
2022-12-26T11:44:23.250Z,9.745342
2022-12-26T11:45:23.259Z,9.745156
2022-12-26T11:46:23.312Z,9.744950